Cape Sakura — 7JHZ — position and weather

sailwx.info

Track history (hours):
 
Tides and Currents Weather Stations Pressure Air Temp Water Temp Dewpoint Dewpoint Depression Visibility Wind Speed Wind Dir Waves Ship Positions

Cape Sakura

Last reported at 2015-Mar-03 21:07 UTC. Time now 2015-Mar-04 00:08 UTC.
Position S 24°46' E 154°04'.

Length 292 m; draft 15.7 m.

Type: Cargo ship. MMSI: 432786000.

Date/timePositionNaut miles runAvg speedWind from/ knotsBaromVisibWave heightAir tempDewpointWater temp
2015-Mar-03 21:07S 24°46' E 154°04'4110.7
2015-Mar-03 17:17S 25°27' E 154°03'810.5
2015-Mar-03 16:29S 25°36' E 154°03'1210.6
2015-Mar-03 15:20S 25°48' E 154°03'910.9
2015-Mar-03 14:29S 25°57' E 154°04'1011.0
2015-Mar-03 13:33S 26°07' E 154°04'1111.2
2015-Mar-03 12:33S 26°18' E 154°04'1611.2
2015-Mar-03 11:06S 26°35' E 154°04'610.9
2015-Mar-03 10:32S 26°41' E 154°04'1211.1
2015-Mar-03 09:30S 26°52' E 154°04'1411.2
2015-Mar-03 08:17S 27°06' E 154°05'1011.5
2015-Mar-03 07:24S 27°16' E 154°05'911.2
2015-Mar-03 06:33S 27°25' E 154°05'1411.2
2015-Mar-03 05:19S 27°39' E 154°04'29110.5
2015-Mar-02 01:32S 32°22' E 152°48'1010.4
2015-Mar-02 00:33S 32°31' E 152°42'1110.8
2015-Mar-01 23:33S 32°38' E 152°32'1111.3
2015-Mar-01 22:33S 32°44' E 152°21'1211.7
2015-Mar-01 21:33S 32°51' E 152°09'1211.8
2015-Mar-01 20:33S 32°55' E 151°56'7 7.4
2015-Mar-01 19:33S 32°55' E 151°47'2 2.3
2015-Mar-01 18:31S 32°53' E 151°46'0 0.0
2015-Mar-01 17:31S 32°53' E 151°46'0 0.0
2015-Mar-01 16:31S 32°53' E 151°46'0 0.0
2015-Mar-01 15:31S 32°53' E 151°46'0 0.0
2015-Mar-01 14:31S 32°53' E 151°46'0 0.0
2015-Mar-01 13:31S 32°53' E 151°46'0 0.0
2015-Mar-01 12:31S 32°53' E 151°46'0 0.0
2015-Mar-01 11:31S 32°53' E 151°46'0 0.0
2015-Mar-01 10:31S 32°53' E 151°46'0 0.0
2015-Mar-01 09:25S 32°53' E 151°46'0 0.0
2015-Mar-01 08:31S 32°53' E 151°46'0 0.0
2015-Mar-01 07:31S 32°53' E 151°46'0 0.0
2015-Mar-01 06:31S 32°53' E 151°46'0 0.0
2015-Mar-01 05:31S 32°53' E 151°46'0 0.0
2015-Mar-01 04:31S 32°53' E 151°46'0 0.0
2015-Mar-01 03:31S 32°53' E 151°46'0 0.0
2015-Mar-01 02:13S 32°53' E 151°46'0 0.0
2015-Mar-01 01:16S 32°53' E 151°46'0 0.0
2015-Mar-01 00:28S 32°53' E 151°46'0 0.0
2015-Feb-28 23:31S 32°53' E 151°46'0 0.0
2015-Feb-28 22:31S 32°53' E 151°46'0 0.0
2015-Feb-28 21:31S 32°53' E 151°46'0 0.0
2015-Feb-28 20:31S 32°53' E 151°46'0 0.0
2015-Feb-28 19:31S 32°53' E 151°46'0 0.0
2015-Feb-28 18:31S 32°53' E 151°46'0 0.0
2015-Feb-28 17:28S 32°53' E 151°46'0 0.0
2015-Feb-28 16:31S 32°53' E 151°46'0 0.0
2015-Feb-28 15:31S 32°53' E 151°46'0 0.0
2015-Feb-28 14:28S 32°53' E 151°46'0 0.0
2015-Feb-28 13:31S 32°53' E 151°46'0 0.0
2015-Feb-28 12:31S 32°53' E 151°46'0 0.0
2015-Feb-28 11:31S 32°53' E 151°46'0 0.0
2015-Feb-28 10:28S 32°53' E 151°46'0 0.0
2015-Feb-28 09:31S 32°53' E 151°46'0 0.0
2015-Feb-28 08:31S 32°53' E 151°46'0 0.0
2015-Feb-28 07:28S 32°53' E 151°46'0 0.5
2015-Feb-28 06:33S 32°54' E 151°46'5 5.5
2015-Feb-28 05:33S 32°58' E 151°51'1010.5
2015-Feb-28 04:33S 33°08' E 151°51'1110.8
2015-Feb-28 03:33S 33°17' E 151°44'  
2015-Feb-23 09:22S 33°14' E 151°51'1215.1
2015-Feb-23 08:33S 33°05' E 152°01'1515.3
2015-Feb-23 07:33S 32°55' E 152°15'1514.6
2015-Feb-23 06:33S 32°45' E 152°28'1514.9
2015-Feb-23 05:33S 32°34' E 152°39'1713.9
2015-Feb-23 04:18S 32°18' E 152°47'1113.5
2015-Feb-23 03:29S 32°07' E 152°52'25714.3
2015-Feb-22 09:33S 27°58' E 154°01'1511.5
2015-Feb-22 08:17S 27°43' E 154°03'810.9
2015-Feb-22 07:32S 27°35' E 154°04'1211.0
2015-Feb-22 06:28S 27°23' E 154°04'1211.0
2015-Feb-22 05:23S 27°11' E 154°04'  
Track history (hours):
 
Tides and Currents Weather Stations Pressure Air Temp Water Temp Dewpoint Dewpoint Depression Visibility Wind Speed Wind Dir Waves Ship Positions

Cape Sakura

Last reported at 2015-Mar-03 21:07 UTC. Time now 2015-Mar-04 00:08 UTC.
Position S 24°46' E 154°04'.

Length 292 m; draft 15.7 m.

Type: Cargo ship. MMSI: 432786000.

Date/timePositionNaut miles runAvg speedWind from/ knotsBaromVisibWave heightAir tempDewpointWater temp
2015-Mar-03 21:07S 24°46' E 154°04'4110.7
2015-Mar-03 17:17S 25°27' E 154°03'810.5
2015-Mar-03 16:29S 25°36' E 154°03'1210.6
2015-Mar-03 15:20S 25°48' E 154°03'910.9
2015-Mar-03 14:29S 25°57' E 154°04'1011.0
2015-Mar-03 13:33S 26°07' E 154°04'1111.2
2015-Mar-03 12:33S 26°18' E 154°04'1611.2
2015-Mar-03 11:06S 26°35' E 154°04'610.9
2015-Mar-03 10:32S 26°41' E 154°04'1211.1
2015-Mar-03 09:30S 26°52' E 154°04'1411.2
2015-Mar-03 08:17S 27°06' E 154°05'1011.5
2015-Mar-03 07:24S 27°16' E 154°05'911.2
2015-Mar-03 06:33S 27°25' E 154°05'1411.2
2015-Mar-03 05:19S 27°39' E 154°04'29110.5
2015-Mar-02 01:32S 32°22' E 152°48'1010.4
2015-Mar-02 00:33S 32°31' E 152°42'1110.8
2015-Mar-01 23:33S 32°38' E 152°32'1111.3
2015-Mar-01 22:33S 32°44' E 152°21'1211.7
2015-Mar-01 21:33S 32°51' E 152°09'1211.8
2015-Mar-01 20:33S 32°55' E 151°56'7 7.4
2015-Mar-01 19:33S 32°55' E 151°47'2 2.3
2015-Mar-01 18:31S 32°53' E 151°46'0 0.0
2015-Mar-01 17:31S 32°53' E 151°46'0 0.0
2015-Mar-01 16:31S 32°53' E 151°46'0 0.0
2015-Mar-01 15:31S 32°53' E 151°46'0 0.0
2015-Mar-01 14:31S 32°53' E 151°46'0 0.0
2015-Mar-01 13:31S 32°53' E 151°46'0 0.0
2015-Mar-01 12:31S 32°53' E 151°46'0 0.0
2015-Mar-01 11:31S 32°53' E 151°46'0 0.0
2015-Mar-01 10:31S 32°53' E 151°46'0 0.0
2015-Mar-01 09:25S 32°53' E 151°46'0 0.0
2015-Mar-01 08:31S 32°53' E 151°46'0 0.0
2015-Mar-01 07:31S 32°53' E 151°46'0 0.0
2015-Mar-01 06:31S 32°53' E 151°46'0 0.0
2015-Mar-01 05:31S 32°53' E 151°46'0 0.0
2015-Mar-01 04:31S 32°53' E 151°46'0 0.0
2015-Mar-01 03:31S 32°53' E 151°46'0 0.0
2015-Mar-01 02:13S 32°53' E 151°46'0 0.0
2015-Mar-01 01:16S 32°53' E 151°46'0 0.0
2015-Mar-01 00:28S 32°53' E 151°46'0 0.0
2015-Feb-28 23:31S 32°53' E 151°46'0 0.0
2015-Feb-28 22:31S 32°53' E 151°46'0 0.0
2015-Feb-28 21:31S 32°53' E 151°46'0 0.0
2015-Feb-28 20:31S 32°53' E 151°46'0 0.0
2015-Feb-28 19:31S 32°53' E 151°46'0 0.0
2015-Feb-28 18:31S 32°53' E 151°46'0 0.0
2015-Feb-28 17:28S 32°53' E 151°46'0 0.0
2015-Feb-28 16:31S 32°53' E 151°46'0 0.0
2015-Feb-28 15:31S 32°53' E 151°46'0 0.0
2015-Feb-28 14:28S 32°53' E 151°46'0 0.0
2015-Feb-28 13:31S 32°53' E 151°46'0 0.0
2015-Feb-28 12:31S 32°53' E 151°46'0 0.0
2015-Feb-28 11:31S 32°53' E 151°46'0 0.0
2015-Feb-28 10:28S 32°53' E 151°46'0 0.0
2015-Feb-28 09:31S 32°53' E 151°46'0 0.0
2015-Feb-28 08:31S 32°53' E 151°46'0 0.0
2015-Feb-28 07:28S 32°53' E 151°46'0 0.5
2015-Feb-28 06:33S 32°54' E 151°46'5 5.5
2015-Feb-28 05:33S 32°58' E 151°51'1010.5
2015-Feb-28 04:33S 33°08' E 151°51'1110.8
2015-Feb-28 03:33S 33°17' E 151°44'  
2015-Feb-23 09:22S 33°14' E 151°51'1215.1
2015-Feb-23 08:33S 33°05' E 152°01'1515.3
2015-Feb-23 07:33S 32°55' E 152°15'1514.6
2015-Feb-23 06:33S 32°45' E 152°28'1514.9
2015-Feb-23 05:33S 32°34' E 152°39'1713.9
2015-Feb-23 04:18S 32°18' E 152°47'1113.5
2015-Feb-23 03:29S 32°07' E 152°52'25714.3
2015-Feb-22 09:33S 27°58' E 154°01'1511.5
2015-Feb-22 08:17S 27°43' E 154°03'810.9
2015-Feb-22 07:32S 27°35' E 154°04'1211.0
2015-Feb-22 06:28S 27°23' E 154°04'1211.0
2015-Feb-22 05:23S 27°11' E 154°04'  

Dump ship's entire track history